Time;durP1;ratioP1;P1;durP2;ratioP2;P2;SDS_P1;SDS_P2;PMS_P1;PMS_P2;Temp;Humidity;BMP_temperature;BMP_pressure;BME280_temperature;BME280_humidity;BME280_pressure;Samples;Min_cycle;Max_cycle;Signal;HPM_P1;HPM_P2
2023/04/19 00:00:38;;;;;;;5.15;2.88;;;;;;;13.66;55.64;100269.38;5087828;28;20391;-72
2023/04/19 00:03:05;;;;;;;4.75;3.10;;;;;;;13.65;55.39;100271.22;5087855;28;20032;-71
2023/04/19 00:05:31;;;;;;;5.20;3.10;;;;;;;13.58;55.47;100258.56;5087289;28;20837;-71
2023/04/19 00:07:57;;;;;;;5.13;3.10;;;;;;;13.45;56.02;100239.25;5087730;28;20099;-71
2023/04/19 00:10:22;;;;;;;5.68;3.03;;;;;;;13.60;55.67;100267.31;5087514;28;20111;-71
2023/04/19 00:12:48;;;;;;;5.68;3.10;;;;;;;13.55;56.12;100254.31;5088124;28;20032;-71
2023/04/19 00:15:13;;;;;;;5.63;3.60;;;;;;;13.44;56.50;100237.53;5087134;28;20024;-71
2023/04/19 00:17:39;;;;;;;3.80;3.30;;;;;;;13.40;56.68;100237.00;5087621;28;20031;-71
2023/04/19 00:20:05;;;;;;;4.90;3.20;;;;;;;13.43;56.26;100239.41;5087136;28;20032;-71
2023/04/19 00:22:31;;;;;;;5.45;3.38;;;;;;;13.35;56.34;100225.84;5069117;28;20043;-71
2023/04/19 00:24:56;;;;;;;5.97;3.85;;;;;;;13.50;56.89;100253.94;5068704;28;20027;-71
2023/04/19 00:27:22;;;;;;;4.93;3.50;;;;;;;13.32;56.99;100228.00;5089300;28;20031;-71
2023/04/19 00:29:47;;;;;;;5.32;3.88;;;;;;;13.50;56.93;100253.06;5095343;28;20035;-71
2023/04/19 00:32:14;;;;;;;4.88;3.40;;;;;;;13.48;56.88;100255.09;5086947;28;20036;-71
2023/04/19 00:34:40;;;;;;;4.38;3.70;;;;;;;13.41;57.13;100237.84;5068407;28;20039;-71
2023/04/19 00:37:07;;;;;;;7.78;3.65;;;;;;;13.46;57.45;100254.41;5086546;28;20399;-71
2023/04/19 00:39:32;;;;;;;11.00;3.75;;;;;;;13.37;57.94;100237.31;5086873;28;20032;-72
2023/04/19 00:41:58;;;;;;;6.38;3.72;;;;;;;13.31;57.89;100232.53;5086399;28;20082;-71
2023/04/19 00:44:24;;;;;;;7.82;3.70;;;;;;;13.32;58.04;100234.22;5086739;28;20184;-71
2023/04/19 00:46:50;;;;;;;6.72;3.92;;;;;;;13.44;58.16;100245.59;5087116;28;20133;-72
2023/04/19 00:49:17;;;;;;;7.13;3.60;;;;;;;13.20;58.83;100211.25;5086408;28;20035;-71
2023/04/19 00:51:43;;;;;;;7.35;4.00;;;;;;;13.37;59.07;100240.00;5086475;28;20047;-71
2023/04/19 00:54:09;;;;;;;4.80;3.65;;;;;;;13.35;59.17;100233.09;5067728;28;20071;-71
2023/04/19 00:56:34;;;;;;;5.07;3.83;;;;;;;13.37;58.68;100240.00;5086427;28;20080;-71
2023/04/19 00:59:01;;;;;;;6.97;4.20;;;;;;;13.36;59.47;100232.09;5066699;28;20081;-72
2023/04/19 01:01:27;;;;;;;5.05;3.50;;;;;;;13.35;59.32;100231.22;5086605;28;20093;-71
2023/04/19 01:03:53;;;;;;;5.20;4.07;;;;;;;13.18;59.68;100193.50;5087656;28;20541;-71
2023/04/19 01:06:18;;;;;;;6.63;3.80;;;;;;;13.34;59.29;100220.59;5086902;28;20068;-71
2023/04/19 01:08:44;;;;;;;6.22;4.00;;;;;;;13.29;59.75;100218.38;5086435;28;20032;-71
2023/04/19 01:11:09;;;;;;;6.68;3.65;;;;;;;13.11;59.77;100184.38;5086678;28;20039;-71
2023/04/19 01:13:35;;;;;;;5.60;4.10;;;;;;;13.29;60.09;100217.53;5068046;28;20039;-72
2023/04/19 01:16:00;;;;;;;5.82;3.90;;;;;;;13.17;59.79;100197.22;5086482;28;20078;-71
2023/04/19 01:18:31;;;;;;;5.95;4.05;;;;;;;13.28;59.74;100214.00;5067897;28;20395;-72
2023/04/19 01:20:59;;;;;;;5.05;3.33;;;;;;;13.15;60.19;100197.38;5085929;28;20036;-71
2023/04/19 01:23:25;;;;;;;8.30;5.05;;;;;;;13.25;59.97;100208.91;5086619;28;20158;-72
2023/04/19 01:25:51;;;;;;;7.65;4.20;;;;;;;13.25;60.12;100208.06;5085792;28;20110;-71
2023/04/19 01:28:16;;;;;;;9.00;4.20;;;;;;;13.20;60.43;100200.47;5086125;28;20016;-71
2023/04/19 01:30:42;;;;;;;6.53;4.22;;;;;;;13.15;60.18;100197.38;5085972;28;20035;-71
2023/04/19 01:33:07;;;;;;;6.97;4.00;;;;;;;13.21;60.46;100206.69;5067420;28;20036;-71
2023/04/19 01:35:33;;;;;;;6.57;4.22;;;;;;;13.18;60.75;100201.59;5085959;28;20395;-71
2023/04/19 01:37:58;;;;;;;7.70;4.32;;;;;;;13.14;59.99;100197.53;5067352;28;20027;-71
2023/04/19 01:40:25;;;;;;;9.30;5.00;;;;;;;13.12;61.30;100202.22;5068243;28;20437;-72
2023/04/19 01:42:50;;;;;;;7.22;4.70;;;;;;;13.07;60.75;100199.16;5086001;28;20020;-71
2023/04/19 01:45:16;;;;;;;6.18;4.18;;;;;;;13.05;61.62;100198.44;5067504;28;20047;-71
2023/04/19 01:47:42;;;;;;;4.85;4.13;;;;;;;12.97;61.25;100193.78;5085834;28;20024;-72
2023/04/19 01:50:08;;;;;;;6.55;4.95;;;;;;;12.95;61.43;100194.94;5085640;28;20028;-72
2023/04/19 01:52:33;;;;;;;6.40;4.05;;;;;;;12.94;62.05;100199.50;5085623;28;20028;-72
2023/04/19 01:54:59;;;;;;;6.18;4.22;;;;;;;12.82;62.45;100181.00;5085728;28;20069;-71
2023/04/19 01:57:24;;;;;;;7.05;4.20;;;;;;;12.83;62.35;100188.94;5067552;28;20369;-72
2023/04/19 01:59:51;;;;;;;11.63;4.32;;;;;;;12.83;62.67;100196.19;5086009;28;20043;-71
2023/04/19 02:02:16;;;;;;;6.60;4.40;;;;;;;12.73;63.27;100180.09;5067857;28;20471;-72
2023/04/19 02:04:43;;;;;;;6.93;4.28;;;;;;;12.80;62.74;100196.47;5085353;28;20062;-72
2023/04/19 02:07:08;;;;;;;8.00;4.50;;;;;;;12.73;62.91;100179.22;5068738;28;20024;-71
2023/04/19 02:09:35;;;;;;;7.63;4.60;;;;;;;12.78;62.74;100193.94;5092371;28;20049;-71
2023/04/19 02:12:01;;;;;;;6.50;4.63;;;;;;;12.51;63.30;100142.84;5092235;28;20028;-71
2023/04/19 02:14:26;;;;;;;8.85;4.60;;;;;;;12.69;63.64;100169.75;5092389;28;20092;-71
2023/04/19 02:16:52;;;;;;;9.30;5.30;;;;;;;12.73;62.85;100181.91;5092700;28;20073;-71
2023/04/19 02:19:17;;;;;;;7.97;4.93;;;;;;;12.67;62.74;100169.91;5092453;28;20118;-71
2023/04/19 02:21:43;;;;;;;6.28;4.20;;;;;;;12.67;62.96;100178.00;5092273;28;20428;-72
2023/04/19 02:24:08;;;;;;;5.45;4.30;;;;;;;12.68;62.85;100190.47;5091943;28;20024;-71
2023/04/19 02:26:33;;;;;;;9.10;5.15;;;;;;;12.60;63.62;100166.16;5092276;28;20391;-71
2023/04/19 02:28:59;;;;;;;8.43;4.88;;;;;;;12.66;63.60;100183.53;5091935;28;20024;-72
2023/04/19 02:31:24;;;;;;;7.18;4.80;;;;;;;12.65;63.14;100187.22;5092705;28;20028;-72
2023/04/19 02:33:50;;;;;;;8.85;4.85;;;;;;;12.64;63.33;100172.09;5091858;28;20035;-71
2023/04/19 02:36:15;;;;;;;7.70;5.00;;;;;;;12.64;63.62;100178.28;5092310;28;20569;-71
2023/04/19 02:38:41;;;;;;;6.82;4.72;;;;;;;12.60;63.12;100160.75;5089679;28;20036;-71
2023/04/19 02:41:06;;;;;;;6.90;4.93;;;;;;;12.64;63.07;100174.78;5073910;28;20092;-71
2023/04/19 02:43:31;;;;;;;7.43;5.30;;;;;;;12.62;63.74;100176.75;5089808;28;20072;-71
2023/04/19 02:45:57;;;;;;;9.63;5.18;;;;;;;12.61;62.96;100172.38;5091782;28;20094;-71
2023/04/19 02:48:22;;;;;;;9.00;5.30;;;;;;;12.59;63.19;100166.28;5092266;28;20031;-71
2023/04/19 02:50:48;;;;;;;8.38;5.60;;;;;;;12.58;63.01;100170.00;5091685;28;20028;-71
2023/04/19 02:53:13;;;;;;;7.38;5.55;;;;;;;12.59;63.49;100177.06;5091883;28;20073;-71
2023/04/19 02:55:39;;;;;;;7.72;5.22;;;;;;;12.59;63.17;100168.97;5092186;28;20059;-71
2023/04/19 02:58:05;;;;;;;7.30;5.30;;;;;;;12.53;63.01;100161.50;5092002;28;20439;-71
2023/04/19 03:00:30;;;;;;;6.60;4.85;;;;;;;12.58;62.91;100156.53;5091931;28;20039;-71
2023/04/19 03:02:56;;;;;;;7.85;5.25;;;;;;;12.54;62.95;100152.47;5073929;28;20028;-72
2023/04/19 03:05:22;;;;;;;7.43;4.82;;;;;;;12.57;62.85;100153.00;5073515;28;20079;-72
2023/04/19 03:07:48;;;;;;;8.90;5.13;;;;;;;12.59;63.06;100155.53;5092084;28;20193;-71
2023/04/19 03:10:13;;;;;;;10.23;5.38;;;;;;;12.58;62.62;100149.28;5073459;28;20131;-71
2023/04/19 03:12:38;;;;;;;7.97;5.60;;;;;;;12.58;62.68;100151.16;5091924;28;20032;-71
2023/04/19 03:15:05;;;;;;;9.50;5.68;;;;;;;12.59;63.05;100150.16;5091699;28;20031;-71
2023/04/19 03:17:30;;;;;;;9.93;5.97;;;;;;;12.48;63.07;100135.06;5091727;28;20058;-71
2023/04/19 03:19:56;;;;;;;9.73;5.68;;;;;;;12.51;63.08;100134.75;5089456;28;20028;-70
2023/04/19 03:22:21;;;;;;;9.13;5.80;;;;;;;12.60;63.25;100150.00;5088236;28;20081;-71
2023/04/19 03:24:47;;;;;;;11.95;6.68;;;;;;;12.43;62.91;100118.56;5069881;28;20024;-72
2023/04/19 03:27:12;;;;;;;12.00;6.43;;;;;;;12.44;63.05;100108.63;5088342;28;20028;-71
2023/04/19 03:29:38;;;;;;;10.52;5.90;;;;;;;12.53;63.12;100132.78;5088385;28;20027;-71
2023/04/19 03:32:03;;;;;;;14.00;6.95;;;;;;;12.54;63.44;100130.94;5088376;28;20032;-71
2023/04/19 03:34:29;;;;;;;9.65;6.75;;;;;;;12.43;63.49;100109.63;5088423;28;20399;-71
2023/04/19 03:36:55;;;;;;;8.00;6.25;;;;;;;12.55;63.86;100141.56;5088812;28;20028;-71
2023/04/19 03:39:20;;;;;;;10.38;5.70;;;;;;;12.52;63.80;100136.47;5088346;28;20143;-72
2023/04/19 03:41:46;;;;;;;9.15;5.53;;;;;;;12.52;63.80;100131.09;5087945;28;20431;-72
2023/04/19 03:44:11;;;;;;;9.15;5.68;;;;;;;12.51;64.11;100137.44;5069667;28;20039;-72
2023/04/19 03:46:36;;;;;;;11.38;5.47;;;;;;;12.45;63.97;100127.28;5088459;28;20020;-71
2023/04/19 03:49:02;;;;;;;7.53;5.18;;;;;;;12.47;64.00;100136.06;5088295;28;20024;-71
2023/04/19 03:51:27;;;;;;;7.82;5.13;;;;;;;12.43;64.15;100129.31;5088443;28;20035;-71
2023/04/19 03:53:53;;;;;;;9.98;5.40;;;;;;;12.33;64.85;100122.28;5088366;28;20024;-71
2023/04/19 03:56:18;;;;;;;9.45;5.68;;;;;;;12.33;64.80;100119.59;5088453;28;20727;-71
2023/04/19 03:58:44;;;;;;;7.47;5.45;;;;;;;12.31;65.15;100133.19;5088089;28;20495;-71
2023/04/19 04:01:20;;;;;;;8.20;5.60;;;;;;;12.27;65.45;100131.81;5069712;28;20024;-71
2023/04/19 04:03:45;;;;;;;7.45;5.85;;;;;;;12.28;66.19;100132.66;5069336;28;20063;-72
2023/04/19 04:06:11;;;;;;;7.55;5.85;;;;;;;12.21;66.69;100127.03;5069834;28;20120;-72
2023/04/19 04:08:37;;;;;;;9.07;6.50;;;;;;;12.14;66.80;100123.25;5087965;28;20085;-71
2023/04/19 04:11:02;;;;;;;8.05;5.80;;;;;;;11.97;67.05;100101.69;5087836;28;20032;-72
2023/04/19 04:13:28;;;;;;;7.97;5.82;;;;;;;12.13;66.99;100131.47;5088325;28;20020;-71
2023/04/19 04:15:53;;;;;;;8.82;6.03;;;;;;;12.12;66.89;100124.41;5088056;28;20034;-71
2023/04/19 04:18:19;;;;;;;9.77;6.13;;;;;;;12.06;67.26;100127.69;5087587;28;20022;-71
2023/04/19 04:20:44;;;;;;;7.90;6.13;;;;;;;12.08;67.62;100131.91;5087756;28;20071;-71
2023/04/19 04:23:10;;;;;;;8.57;5.95;;;;;;;12.06;67.79;100131.19;5087421;28;20024;-71
2023/04/19 04:25:36;;;;;;;9.02;6.00;;;;;;;12.03;67.99;100118.03;5088394;28;20101;-71
2023/04/19 04:28:03;;;;;;;9.57;6.78;;;;;;;12.01;68.00;100127.25;5087423;28;20050;-71
2023/04/19 04:30:29;;;;;;;8.70;6.22;;;;;;;11.87;67.56;100103.56;5087435;28;20726;-71
2023/04/19 04:32:56;;;;;;;10.05;5.45;;;;;;;11.94;67.96;100115.41;5087415;28;20038;-72
2023/04/19 04:35:22;;;;;;;7.22;5.63;;;;;;;11.97;67.62;100115.97;5087441;28;20028;-71
2023/04/19 04:37:48;;;;;;;7.50;5.30;;;;;;;12.03;67.76;100120.72;5088160;28;20081;-72
2023/04/19 04:40:14;;;;;;;8.82;5.72;;;;;;;11.95;67.65;100099.16;5087219;28;20032;-72
2023/04/19 04:42:41;;;;;;;11.57;5.68;;;;;;;12.03;67.69;100103.78;5071218;28;20039;-72
2023/04/19 04:45:09;;;;;;;11.02;6.35;;;;;;;12.22;67.35;100133.25;5087335;28;20073;-71
2023/04/19 04:47:35;;;;;;;10.82;6.47;;;;;;;12.28;66.77;100132.66;5087845;28;20028;-71
2023/04/19 04:50:07;;;;;;;10.25;7.90;;;;;;;12.25;67.22;100119.53;5087602;28;20028;-72
2023/04/19 04:52:33;;;;;;;10.10;7.85;;;;;;;12.21;66.80;100105.50;5086645;28;20035;-68
2023/04/19 04:54:58;;;;;;;10.82;7.45;;;;;;;12.34;66.58;100124.81;5087231;28;20024;-69
2023/04/19 04:57:24;;;;;;;9.82;6.95;;;;;;;12.34;66.35;100122.13;5086032;28;20031;-68
2023/04/19 04:59:49;;;;;;;9.07;6.63;;;;;;;12.27;66.02;100104.06;5084442;28;20429;-69
2023/04/19 05:02:15;;;;;;;9.52;5.70;;;;;;;12.32;65.99;100109.84;5085915;28;20028;-68
2023/04/19 05:04:41;;;;;;;8.32;5.95;;;;;;;12.19;66.01;100085.16;5088314;28;20689;-68
2023/04/19 05:07:06;;;;;;;11.52;5.82;;;;;;;12.48;65.80;100129.69;5070395;28;20020;-68
2023/04/19 05:09:32;;;;;;;8.38;5.88;;;;;;;12.55;64.62;100132.63;5086721;28;20027;-68
2023/04/19 05:11:57;;;;;;;10.38;6.22;;;;;;;12.54;64.73;100109.44;5068116;28;20039;-69
2023/04/19 05:14:23;;;;;;;9.25;5.85;;;;;;;12.65;64.38;100125.34;5086561;28;20035;-69
2023/04/19 05:16:48;;;;;;;6.68;5.05;;;;;;;12.69;64.74;100121.34;5060405;28;20028;-69
2023/04/19 05:19:14;;;;;;;7.38;5.07;;;;;;;12.60;64.26;100098.03;5083481;28;20395;-69
2023/04/19 05:21:39;;;;;;;8.63;5.47;;;;;;;12.82;63.92;100122.66;5082550;28;20526;-68
2023/04/19 05:24:05;;;;;;;8.65;5.47;;;;;;;12.87;63.80;100114.94;5084727;28;20024;-68
2023/04/19 05:26:31;;;;;;;7.55;5.28;;;;;;;13.09;64.00;100125.28;5085847;28;20118;-68
2023/04/19 05:28:56;;;;;;;7.88;5.13;;;;;;;13.29;62.12;100128.66;5083884;28;20028;-68
2023/04/19 05:31:22;;;;;;;7.45;4.80;;;;;;;13.31;61.88;100107.78;5085438;28;20028;-69
2023/04/19 05:33:47;;;;;;;10.18;5.63;;;;;;;13.52;61.06;100127.13;5082801;28;20032;-69
2023/04/19 05:36:13;;;;;;;8.38;5.60;;;;;;;13.69;60.04;100127.09;5082260;28;20024;-69
2023/04/19 05:38:38;;;;;;;15.20;6.13;;;;;;;13.73;59.28;100099.81;5085828;28;20032;-69
2023/04/19 05:41:04;;;;;;;7.75;6.03;;;;;;;14.10;59.30;100122.75;5085887;28;20081;-68
2023/04/19 05:43:29;;;;;;;14.18;5.13;;;;;;;14.22;58.92;100110.66;5084873;28;20507;-68
2023/04/19 05:45:55;;;;;;;10.52;5.43;;;;;;;14.48;58.24;100124.13;5085869;28;20024;-68
2023/04/19 05:48:20;;;;;;;7.97;4.95;;;;;;;14.65;57.55;100118.59;5085418;28;20511;-68
2023/04/19 05:50:46;;;;;;;10.57;5.68;;;;;;;14.88;56.37;100119.66;5085765;28;20035;-69
2023/04/19 05:53:11;;;;;;;10.27;4.97;;;;;;;14.96;55.88;100099.91;5083078;28;20036;-69
2023/04/19 05:55:37;;;;;;;6.05;4.88;;;;;;;15.22;56.03;100112.22;5067468;28;20028;-68
2023/04/19 05:58:02;;;;;;;8.38;5.20;;;;;;;15.40;54.47;100107.53;5084451;28;20039;-68
2023/04/19 06:00:28;;;;;;;8.77;5.90;;;;;;;15.45;54.74;100101.63;5085300;28;20050;-69
2023/04/19 06:02:53;;;;;;;6.35;5.20;;;;;;;15.70;54.83;100106.78;5085493;28;20028;-68
2023/04/19 06:05:19;;;;;;;10.23;5.55;;;;;;;15.89;54.34;100105.56;5067092;28;20028;-68
2023/04/19 06:07:44;;;;;;;9.00;5.38;;;;;;;16.00;53.69;100091.69;5084797;28;20499;-69
2023/04/19 06:10:10;;;;;;;8.00;5.45;;;;;;;16.19;53.03;100096.69;5067609;28;20421;-68
2023/04/19 06:12:35;;;;;;;8.68;5.53;;;;;;;16.30;51.09;100065.66;5085702;28;20486;-68
2023/04/19 06:15:01;;;;;;;6.30;4.85;;;;;;;16.45;51.63;100099.97;5085635;28;20032;-69
2023/04/19 06:17:26;;;;;;;8.75;5.22;;;;;;;16.46;52.14;100100.78;5085550;28;20016;-69
2023/04/19 06:19:52;;;;;;;8.57;5.53;;;;;;;16.50;52.11;100102.97;5085172;28;20038;-68
2023/04/19 06:22:18;;;;;;;17.85;5.90;;;;;;;16.54;52.49;100107.00;5080277;28;20040;-68
2023/04/19 06:24:47;;;;;;;8.13;5.40;;;;;;;16.57;52.12;100092.28;5066641;28;20118;-69
2023/04/19 06:27:14;;;;;;;9.98;5.50;;;;;;;16.75;52.55;100111.78;5083013;28;20378;-69
2023/04/19 06:29:39;;;;;;;9.02;5.43;;;;;;;16.91;51.89;100108.97;5084279;28;20039;-68
2023/04/19 06:32:05;;;;;;;7.25;4.88;;;;;;;17.10;51.43;100112.06;5084587;28;20036;-68
2023/04/19 06:34:30;;;;;;;7.53;4.80;;;;;;;17.24;50.87;100096.84;5084608;28;20126;-68
2023/04/19 06:36:56;;;;;;;10.93;5.50;;;;;;;17.45;50.94;100106.00;5066901;28;20389;-68
2023/04/19 06:39:21;;;;;;;8.13;5.90;;;;;;;17.57;49.14;100106.41;5066471;28;20080;-68
2023/04/19 06:41:47;;;;;;;12.68;6.60;;;;;;;17.55;48.71;100108.47;5085213;28;20429;-68
2023/04/19 06:44:12;;;;;;;7.60;5.72;;;;;;;17.49;48.76;100112.75;5084509;28;20055;-68
2023/04/19 06:46:38;;;;;;;8.75;6.18;;;;;;;17.45;48.31;100111.41;5072272;28;20081;-68
2023/04/19 06:49:04;;;;;;;8.25;5.78;;;;;;;17.40;48.98;100107.53;5081562;28;20031;-68
2023/04/19 06:51:30;;;;;;;7.45;5.55;;;;;;;17.25;49.58;100087.72;5084252;28;20029;-68
2023/04/19 06:53:55;;;;;;;7.70;5.70;;;;;;;17.26;49.71;100094.81;5068619;28;20027;-68
2023/04/19 06:56:41;;;;;;;8.95;6.05;;;;;;;17.27;49.07;100115.47;5087183;28;20507;-68
2023/04/19 06:59:08;;;;;;;8.88;6.05;;;;;;;17.19;49.47;100097.38;5069731;28;20379;-68
2023/04/19 07:01:33;;;;;;;10.32;6.22;;;;;;;17.13;49.23;100097.28;5076606;28;20085;-68
2023/04/19 07:03:58;;;;;;;8.95;6.55;;;;;;;17.27;49.15;100118.16;5085937;28;20023;-68
2023/04/19 07:06:25;;;;;;;10.90;6.40;;;;;;;17.26;49.20;100124.63;5085901;28;20055;-68
2023/04/19 07:08:51;;;;;;;9.05;6.45;;;;;;;17.26;49.28;100117.34;5086548;28;20521;-69
2023/04/19 07:11:16;;;;;;;10.27;6.28;;;;;;;17.32;49.37;100116.59;5087408;28;20020;-69
2023/04/19 07:13:41;;;;;;;11.23;6.50;;;;;;;17.33;49.54;100117.44;5067434;28;20493;-69
2023/04/19 07:16:07;;;;;;;12.50;6.97;;;;;;;17.28;49.57;100115.28;5087438;28;20388;-68
2023/04/19 07:18:32;;;;;;;8.18;6.57;;;;;;;17.20;49.14;100100.94;5086486;28;20035;-69
2023/04/19 07:20:58;;;;;;;12.85;6.07;;;;;;;17.27;49.24;100116.31;5067854;28;20075;-69
2023/04/19 07:23:23;;;;;;;9.10;6.55;;;;;;;17.27;49.37;100115.47;5087650;28;20479;-69
2023/04/19 07:25:49;;;;;;;9.10;6.88;;;;;;;17.17;49.17;100101.31;5088033;28;20076;-69
2023/04/19 07:28:14;;;;;;;11.10;7.25;;;;;;;17.25;49.61;100117.53;5086218;28;20137;-69
2023/04/19 07:30:40;;;;;;;9.95;7.25;;;;;;;17.24;49.63;100115.81;5086489;28;20020;-68
2023/04/19 07:33:07;;;;;;;14.00;7.00;;;;;;;17.34;49.45;100128.09;5086263;28;20031;-69
2023/04/19 07:35:34;;;;;;;8.40;6.57;;;;;;;17.39;49.35;100135.69;5088129;28;20032;-68
2023/04/19 07:37:59;;;;;;;9.63;6.20;;;;;;;17.42;49.43;100122.63;5085770;28;20016;-69
2023/04/19 07:40:25;;;;;;;9.48;7.05;;;;;;;17.45;49.28;100122.25;5085877;28;20372;-69
2023/04/19 07:42:50;;;;;;;12.25;7.00;;;;;;;17.21;49.01;100075.53;5086105;28;20040;-69
2023/04/19 07:45:16;;;;;;;11.00;7.03;;;;;;;17.58;49.22;100124.38;5064797;28;20678;-68
2023/04/19 07:47:41;;;;;;;14.10;7.32;;;;;;;17.58;49.08;100111.63;5087279;28;20035;-68
2023/04/19 07:50:08;;;;;;;11.68;7.57;;;;;;;17.79;49.08;100119.06;5085085;28;20034;-69
2023/04/19 07:52:33;;;;;;;11.23;7.85;;;;;;;17.98;48.45;100113.09;5087358;28;20062;-70
2023/04/19 07:55:00;;;;;;;10.13;7.88;;;;;;;18.13;48.82;100118.50;5087073;28;20097;-69
2023/04/19 07:57:25;;;;;;;11.68;7.68;;;;;;;18.24;48.10;100124.31;5085161;28;20067;-69
2023/04/19 07:59:53;;;;;;;9.55;7.25;;;;;;;18.26;48.69;100105.97;5085708;28;20055;-68
2023/04/19 08:02:19;;;;;;;11.57;7.75;;;;;;;18.45;48.45;100119.00;5085462;28;20036;-68
2023/04/19 08:04:47;;;;;;;11.63;7.93;;;;;;;18.48;47.90;100096.91;5067946;28;20047;-68
2023/04/19 08:07:12;;;;;;;9.50;7.78;;;;;;;18.77;48.00;100121.25;5084200;28;20020;-69
2023/04/19 08:09:37;;;;;;;12.68;7.68;;;;;;;19.01;46.95;100120.03;5085818;28;20076;-69
2023/04/19 08:12:03;;;;;;;13.43;8.02;;;;;;;19.27;46.95;100107.59;5085362;28;20028;-69
2023/04/19 08:14:28;;;;;;;13.18;7.35;;;;;;;19.71;46.15;100108.19;5068210;28;20063;-69
2023/04/19 08:16:54;;;;;;;11.02;7.10;;;;;;;20.28;44.66;100102.47;5067417;28;20708;-69
2023/04/19 08:19:19;;;;;;;10.10;6.70;;;;;;;20.97;42.84;100101.28;5083395;28;20092;-69
2023/04/19 08:21:45;;;;;;;10.70;7.18;;;;;;;21.75;40.87;100098.63;5084932;28;20036;-69
2023/04/19 08:24:10;;;;;;;10.77;6.97;;;;;;;22.52;39.76;100097.81;5085876;28;20039;-69
2023/04/19 08:26:37;;;;;;;9.20;6.72;;;;;;;23.84;37.13;100087.44;5086003;28;20020;-69
2023/04/19 08:29:03;;;;;;;8.07;6.60;;;;;;;24.92;35.18;100083.03;5086479;28;20032;-69
2023/04/19 08:31:28;;;;;;;10.32;6.53;;;;;;;25.79;33.75;100091.38;5084334;28;20373;-68
2023/04/19 08:33:54;;;;;;;11.65;7.05;;;;;;;26.11;33.12;100070.69;5084161;28;20463;-69
2023/04/19 08:36:19;;;;;;;9.30;6.72;;;;;;;26.88;32.44;100083.06;5066164;28;20316;-69
2023/04/19 08:38:45;;;;;;;9.13;6.57;;;;;;;27.73;30.41;100081.88;5068050;28;20488;-68
2023/04/19 08:41:12;;;;;;;9.45;6.28;;;;;;;28.20;30.17;100081.25;5084471;28;20036;-69
2023/04/19 08:43:38;;;;;;;8.65;5.55;;;;;;;28.50;29.77;100070.63;5085094;28;20099;-68
2023/04/19 08:46:04;;;;;;;9.77;6.07;;;;;;;28.53;30.06;100072.03;5084980;28;20073;-68
2023/04/19 08:48:33;;;;;;;9.88;6.65;;;;;;;28.99;29.63;100065.97;5085976;28;20032;-67
2023/04/19 08:50:59;;;;;;;10.02;6.47;;;;;;;28.75;29.68;100072.88;5083436;28;20082;-68
2023/04/19 08:53:28;;;;;;;7.68;5.68;;;;;;;28.00;29.66;100066.31;5086398;28;20035;-68
2023/04/19 08:55:57;;;;;;;8.68;5.80;;;;;;;27.64;30.19;100072.34;5085081;28;20020;-67
2023/04/19 08:58:24;;;;;;;6.95;5.75;;;;;;;27.39;30.28;100064.50;5089013;28;20375;-69
2023/04/19 09:00:50;;;;;;;7.95;5.85;;;;;;;26.57;31.70;100065.09;5068282;28;20043;-69
2023/04/19 09:03:15;;;;;;;8.07;6.32;;;;;;;26.14;32.88;100061.97;5083942;28;20051;-68
2023/04/19 09:05:41;;;;;;;11.90;6.35;;;;;;;25.48;32.84;100064.22;5067383;28;20131;-68
2023/04/19 09:08:27;;;;;;;8.85;6.05;;;;;;;25.05;33.50;100056.22;5085326;28;20024;-68
2023/04/19 09:10:55;;;;;;;7.00;5.82;;;;;;;24.68;34.54;100059.28;5084382;28;20032;-68
2023/04/19 09:13:20;;;;;;;10.18;7.13;;;;;;;24.31;34.60;100053.84;5084002;28;20038;-69
2023/04/19 09:15:46;;;;;;;10.27;7.63;;;;;;;23.95;35.29;100059.31;5084436;28;20032;-69
2023/04/19 09:18:13;;;;;;;6.43;5.60;;;;;;;23.65;36.26;100061.06;5084573;28;20027;-68
2023/04/19 09:20:40;;;;;;;8.30;6.43;;;;;;;23.39;35.75;100030.34;5064517;28;20051;-68
2023/04/19 09:23:12;;;;;;;8.75;6.75;;;;;;;23.29;36.25;100047.28;5060953;28;20666;-68
2023/04/19 09:25:38;;;;;;;8.43;7.15;;;;;;;23.10;36.81;100051.00;5065910;28;20369;-69
2023/04/19 09:28:13;;;;;;;10.82;6.40;;;;;;;23.00;37.17;100044.31;5063054;28;20051;-68
2023/04/19 09:30:40;;;;;;;8.63;6.13;;;;;;;22.88;37.41;100048.81;5064497;28;20082;-68
2023/04/19 09:33:06;;;;;;;9.77;7.20;;;;;;;22.70;38.18;100033.13;5060735;28;20032;-68
2023/04/19 09:35:47;;;;;;;7.55;6.05;;;;;;;23.08;36.43;100030.38;5064266;28;20531;-69
2023/04/19 09:38:13;;;;;;;9.68;6.88;;;;;;;22.89;37.44;100047.78;5063450;28;20040;-67
2023/04/19 09:40:39;;;;;;;10.15;6.72;;;;;;;22.40;37.91;100021.09;5064260;28;20027;-69
2023/04/19 09:43:05;;;;;;;11.45;7.82;;;;;;;22.27;38.26;100052.06;5062910;28;20388;-68
2023/04/19 09:45:42;;;;;;;9.55;6.82;;;;;;;21.97;39.00;100047.31;5064390;28;20041;-68
2023/04/19 09:48:08;;;;;;;10.75;7.10;;;;;;;21.70;39.56;100057.44;5065792;28;20083;-68
2023/04/19 09:50:35;;;;;;;14.88;8.02;;;;;;;21.42;40.18;100054.13;5064699;28;20032;-67
2023/04/19 09:53:02;;;;;;;17.67;10.57;;;;;;;21.14;40.56;100055.34;5060694;28;20035;-68
2023/04/19 09:55:29;;;;;;;18.70;8.18;;;;;;;20.85;41.29;100062.00;5064947;28;20032;-68
2023/04/19 09:57:55;;;;;;;17.38;9.65;;;;;;;20.64;41.29;100055.88;5066859;28;20139;-68
2023/04/19 10:00:21;;;;;;;16.23;10.30;;;;;;;20.28;42.32;100060.78;5061313;28;20025;-67
2023/04/19 10:02:54;;;;;;;13.18;9.55;;;;;;;19.99;43.10;100048.22;5062823;28;20479;-67
2023/04/19 10:05:23;;;;;;;13.68;9.95;;;;;;;19.93;43.58;100062.66;5065501;28;20017;-68
2023/04/19 10:07:49;;;;;;;36.75;20.85;;;;;;;19.65;44.06;100045.53;5067527;28;20055;-67
2023/04/19 10:10:19;;;;;;;22.40;14.35;;;;;;;19.48;44.36;100044.97;5062857;28;20110;-68
2023/04/19 10:12:48;;;;;;;14.50;8.07;;;;;;;19.41;44.38;100049.53;5064306;28;20078;-68
2023/04/19 10:15:14;;;;;;;11.80;8.02;;;;;;;19.20;45.33;100035.97;5063684;28;20028;-68
2023/04/19 10:17:40;;;;;;;9.00;8.07;;;;;;;19.17;45.14;100059.97;5066779;28;20093;-68
2023/04/19 10:20:12;;;;;;;10.63;7.53;;;;;;;18.93;45.83;100039.47;5063772;28;20459;-68
2023/04/19 10:22:38;;;;;;;10.38;7.63;;;;;;;18.96;46.45;100052.66;5083116;28;20791;-68
2023/04/19 10:25:11;;;;;;;11.82;7.05;;;;;;;18.69;46.32;100028.13;5082902;28;20024;-68
2023/04/19 10:27:38;;;;;;;8.95;6.50;;;;;;;18.77;46.15;100053.31;5085030;28;20472;-68
2023/04/19 10:30:09;;;;;;;10.15;6.85;;;;;;;18.65;46.60;100043.16;5077954;28;20123;-67
2023/04/19 10:32:43;;;;;;;12.80;8.07;;;;;;;18.62;46.94;100049.81;5085917;28;20371;-67
2023/04/19 10:35:10;;;;;;;;;;;;;;;18.58;46.92;100051.25;5086687;28;21026;-67
2023/04/19 10:37:39;;;;;;;10.35;7.20;;;;;;;18.52;46.65;100051.16;5088885;28;19923;-68
2023/04/19 10:40:06;;;;;;;9.32;7.28;;;;;;;18.49;46.93;100054.25;5063889;28;20551;-67
2023/04/19 10:43:13;;;;;;;10.63;7.93;;;;;;;18.43;47.44;100055.03;5085722;28;20039;-68
2023/04/19 10:45:39;;;;;;;12.77;8.75;;;;;;;18.30;47.79;100044.81;5084706;28;20416;-68
2023/04/19 10:48:04;;;;;;;13.43;9.68;;;;;;;18.31;48.47;100054.63;5085364;28;20127;-68
2023/04/19 10:50:56;;;;;;;12.35;9.10;;;;;;;18.23;48.68;100052.03;5085898;28;20081;-68
2023/04/19 10:53:43;;;;;;;21.33;9.98;;;;;;;18.20;48.62;100057.84;5067157;28;20715;-68
2023/04/19 10:56:09;;;;;;;15.63;8.30;;;;;;;18.13;48.61;100044.19;5087283;28;20016;-68
2023/04/19 10:59:10;;;;;;;11.43;8.05;;;;;;;18.13;48.83;100057.75;5086808;28;20104;-68
2023/04/19 11:01:41;;;;;;;11.40;7.53;;;;;;;18.11;48.53;100056.28;5068392;28;20031;-68
2023/04/19 11:04:30;;;;;;;13.32;6.63;;;;;;;18.06;48.60;100050.59;5078191;28;20107;-67
2023/04/19 11:07:13;;;;;;;10.85;7.60;;;;;;;18.03;48.99;100046.34;5039291;28;20044;-68
2023/04/19 11:09:44;;;;;;;15.15;7.32;;;;;;;17.96;48.91;100044.59;5087405;28;20039;-67
2023/04/19 11:12:15;;;;;;;9.27;7.00;;;;;;;17.81;49.23;100008.50;5087003;28;20429;-68
2023/04/19 11:14:44;;;;;;;8.20;6.00;;;;;;;18.02;48.47;100049.25;5089519;28;20733;-68
2023/04/19 11:17:17;;;;;;;8.35;5.93;;;;;;;18.00;48.34;100049.44;5089030;28;20527;-68
2023/04/19 11:19:53;;;;;;;10.60;6.03;;;;;;;17.99;48.65;100046.91;5089014;28;20035;-68